sensor_id;sensor_type;location;lat;lon;timestamp;pressure;altitude;pressure_sealevel;temperature;humidity
76815;BME280;65768;49.906;19.384;2022-12-18T00:07:52;99784.27;;;-6.34;88.88
76815;BME280;65768;49.906;19.384;2022-12-18T00:10:54;99786.15;;;-6.30;89.08
76815;BME280;65768;49.906;19.384;2022-12-18T00:13:24;99785.59;;;-6.30;88.95
76815;BME280;65768;49.906;19.384;2022-12-18T00:15:52;99790.69;;;-6.32;88.88
76815;BME280;65768;49.906;19.384;2022-12-18T00:18:22;99793.04;;;-6.34;89.23
76815;BME280;65768;49.906;19.384;2022-12-18T00:20:50;99800.10;;;-6.35;89.11
76815;BME280;65768;49.906;19.384;2022-12-18T00:23:18;99803.27;;;-6.36;89.17
76815;BME280;65768;49.906;19.384;2022-12-18T00:25:45;99807.26;;;-6.37;89.00
76815;BME280;65768;49.906;19.384;2022-12-18T00:28:13;99806.36;;;-6.35;88.91
76815;BME280;65768;49.906;19.384;2022-12-18T00:30:41;99812.88;;;-6.34;89.02
76815;BME280;65768;49.906;19.384;2022-12-18T00:33:09;99819.67;;;-6.34;88.85
76815;BME280;65768;49.906;19.384;2022-12-18T00:35:37;99820.61;;;-6.35;89.06
76815;BME280;65768;49.906;19.384;2022-12-18T00:38:05;99824.15;;;-6.36;89.11
76815;BME280;65768;49.906;19.384;2022-12-18T00:40:33;99825.06;;;-6.35;89.44
76815;BME280;65768;49.906;19.384;2022-12-18T00:43:01;99823.08;;;-6.34;89.15
76815;BME280;65768;49.906;19.384;2022-12-18T00:45:30;99823.34;;;-6.35;89.46
76815;BME280;65768;49.906;19.384;2022-12-18T00:47:58;99828.83;;;-6.34;88.75
76815;BME280;65768;49.906;19.384;2022-12-18T00:50:26;99832.71;;;-6.34;88.75
76815;BME280;65768;49.906;19.384;2022-12-18T00:52:54;99833.20;;;-6.37;88.94
76815;BME280;65768;49.906;19.384;2022-12-18T00:55:22;99842.02;;;-6.35;88.95
76815;BME280;65768;49.906;19.384;2022-12-18T00:57:51;99841.84;;;-6.35;88.95
76815;BME280;65768;49.906;19.384;2022-12-18T01:00:20;99842.42;;;-6.34;89.23
76815;BME280;65768;49.906;19.384;2022-12-18T01:02:48;99843.27;;;-6.32;89.40
76815;BME280;65768;49.906;19.384;2022-12-18T01:05:16;99845.98;;;-6.34;89.18
76815;BME280;65768;49.906;19.384;2022-12-18T01:07:43;99851.17;;;-6.35;88.94
76815;BME280;65768;49.906;19.384;2022-12-18T01:10:12;99855.95;;;-6.34;89.14
76815;BME280;65768;49.906;19.384;2022-12-18T01:12:40;99857.97;;;-6.35;89.26
76815;BME280;65768;49.906;19.384;2022-12-18T01:15:10;99858.17;;;-6.36;89.05
76815;BME280;65768;49.906;19.384;2022-12-18T01:17:39;99863.17;;;-6.37;89.21
76815;BME280;65768;49.906;19.384;2022-12-18T01:20:08;99864.61;;;-6.34;89.24
76815;BME280;65768;49.906;19.384;2022-12-18T01:22:36;99866.32;;;-6.34;88.95
76815;BME280;65768;49.906;19.384;2022-12-18T01:25:05;99867.33;;;-6.32;89.41
76815;BME280;65768;49.906;19.384;2022-12-18T01:27:33;99870.15;;;-6.33;89.28
76815;BME280;65768;49.906;19.384;2022-12-18T01:30:02;99870.45;;;-6.32;89.11
76815;BME280;65768;49.906;19.384;2022-12-18T01:32:31;99870.05;;;-6.33;89.10
76815;BME280;65768;49.906;19.384;2022-12-18T01:34:59;99871.52;;;-6.33;89.25
76815;BME280;65768;49.906;19.384;2022-12-18T01:37:27;99873.58;;;-6.33;89.39
76815;BME280;65768;49.906;19.384;2022-12-18T01:39:55;99866.28;;;-6.33;89.34
76815;BME280;65768;49.906;19.384;2022-12-18T01:42:23;99869.75;;;-6.34;89.31
76815;BME280;65768;49.906;19.384;2022-12-18T01:47:37;99867.02;;;-6.32;88.99
76815;BME280;65768;49.906;19.384;2022-12-18T01:50:34;99871.05;;;-6.33;89.31
76815;BME280;65768;49.906;19.384;2022-12-18T01:53:04;99877.05;;;-6.32;89.04
76815;BME280;65768;49.906;19.384;2022-12-18T01:55:54;99880.46;;;-6.32;88.86
76815;BME280;65768;49.906;19.384;2022-12-18T01:58:40;99885.37;;;-6.32;89.10
76815;BME280;65768;49.906;19.384;2022-12-18T02:01:09;99892.04;;;-6.31;88.98
76815;BME280;65768;49.906;19.384;2022-12-18T02:03:37;99893.52;;;-6.32;88.79
76815;BME280;65768;49.906;19.384;2022-12-18T02:06:29;99894.27;;;-6.33;89.04
76815;BME280;65768;49.906;19.384;2022-12-18T02:11:54;99899.95;;;-6.30;88.64
76815;BME280;65768;49.906;19.384;2022-12-18T02:14:49;99901.82;;;-6.28;88.75
76815;BME280;65768;49.906;19.384;2022-12-18T02:17:33;99907.91;;;-6.26;89.26
76815;BME280;65768;49.906;19.384;2022-12-18T02:28:46;99929.92;;;-6.31;88.84
76815;BME280;65768;49.906;19.384;2022-12-18T02:31:19;99932.20;;;-6.34;88.88
76815;BME280;65768;49.906;19.384;2022-12-18T02:33:49;99934.56;;;-6.34;88.71
76815;BME280;65768;49.906;19.384;2022-12-18T02:36:19;99938.03;;;-6.31;88.61
76815;BME280;65768;49.906;19.384;2022-12-18T02:38:50;99934.25;;;-6.30;88.96
76815;BME280;65768;49.906;19.384;2022-12-18T02:41:23;99934.70;;;-6.26;88.76
76815;BME280;65768;49.906;19.384;2022-12-18T02:44:06;99935.27;;;-6.28;89.05
76815;BME280;65768;49.906;19.384;2022-12-18T02:46:39;99938.02;;;-6.29;88.80
76815;BME280;65768;49.906;19.384;2022-12-18T02:54:38;99940.59;;;-6.31;88.93
76815;BME280;65768;49.906;19.384;2022-12-18T02:57:37;99944.52;;;-6.33;89.01
76815;BME280;65768;49.906;19.384;2022-12-18T03:03:45;99959.08;;;-6.35;88.91
76815;BME280;65768;49.906;19.384;2022-12-18T03:06:24;99961.55;;;-6.34;88.74
76815;BME280;65768;49.906;19.384;2022-12-18T03:08:59;99965.58;;;-6.32;89.02
76815;BME280;65768;49.906;19.384;2022-12-18T03:11:31;99969.43;;;-6.31;89.01
76815;BME280;65768;49.906;19.384;2022-12-18T03:14:20;99970.88;;;-6.30;88.97
76815;BME280;65768;49.906;19.384;2022-12-18T03:16:53;99971.63;;;-6.29;88.70
76815;BME280;65768;49.906;19.384;2022-12-18T03:19:25;99967.23;;;-6.31;88.25
76815;BME280;65768;49.906;19.384;2022-12-18T03:21:56;99969.09;;;-6.31;88.36
76815;BME280;65768;49.906;19.384;2022-12-18T03:24:26;99969.74;;;-6.31;88.87
76815;BME280;65768;49.906;19.384;2022-12-18T03:27:00;99971.77;;;-6.31;88.58
76815;BME280;65768;49.906;19.384;2022-12-18T03:29:44;99976.68;;;-6.31;88.70
76815;BME280;65768;49.906;19.384;2022-12-18T03:32:24;99973.23;;;-6.32;88.85
76815;BME280;65768;49.906;19.384;2022-12-18T03:34:58;99976.02;;;-6.31;88.44
76815;BME280;65768;49.906;19.384;2022-12-18T03:37:30;99973.70;;;-6.31;88.71
76815;BME280;65768;49.906;19.384;2022-12-18T03:39:58;99978.03;;;-6.30;88.60
76815;BME280;65768;49.906;19.384;2022-12-18T03:42:32;99972.75;;;-6.28;88.86
76815;BME280;65768;49.906;19.384;2022-12-18T03:45:10;99972.26;;;-6.30;88.72
76815;BME280;65768;49.906;19.384;2022-12-18T03:52:57;99990.95;;;-6.31;88.93
76815;BME280;65768;49.906;19.384;2022-12-18T03:55:31;99998.67;;;-6.32;88.85
76815;BME280;65768;49.906;19.384;2022-12-18T03:58:01;100003.58;;;-6.32;88.95
76815;BME280;65768;49.906;19.384;2022-12-18T04:00:30;100007.83;;;-6.32;88.62
76815;BME280;65768;49.906;19.384;2022-12-18T04:03:00;100011.98;;;-6.31;88.97
76815;BME280;65768;49.906;19.384;2022-12-18T04:05:30;100012.01;;;-6.31;88.60
76815;BME280;65768;49.906;19.384;2022-12-18T04:08:00;100008.00;;;-6.31;88.59
76815;BME280;65768;49.906;19.384;2022-12-18T04:10:29;100018.81;;;-6.31;88.55
76815;BME280;65768;49.906;19.384;2022-12-18T04:12:57;100021.26;;;-6.32;88.53
76815;BME280;65768;49.906;19.384;2022-12-18T04:15:25;100024.05;;;-6.31;89.01
76815;BME280;65768;49.906;19.384;2022-12-18T04:17:53;100028.18;;;-6.32;88.81
76815;BME280;65768;49.906;19.384;2022-12-18T04:20:21;100027.98;;;-6.34;88.90
76815;BME280;65768;49.906;19.384;2022-12-18T04:22:49;100032.63;;;-6.36;89.24
76815;BME280;65768;49.906;19.384;2022-12-18T04:25:16;100032.84;;;-6.37;88.73
76815;BME280;65768;49.906;19.384;2022-12-18T04:27:44;100038.80;;;-6.37;88.88
76815;BME280;65768;49.906;19.384;2022-12-18T04:30:12;100041.77;;;-6.36;88.77
76815;BME280;65768;49.906;19.384;2022-12-18T04:32:40;100045.11;;;-6.36;88.76
76815;BME280;65768;49.906;19.384;2022-12-18T04:35:09;100045.23;;;-6.37;88.84
76815;BME280;65768;49.906;19.384;2022-12-18T04:37:38;100046.41;;;-6.37;88.83
76815;BME280;65768;49.906;19.384;2022-12-18T04:40:06;100044.30;;;-6.37;88.79
76815;BME280;65768;49.906;19.384;2022-12-18T04:42:34;100044.14;;;-6.37;88.87
76815;BME280;65768;49.906;19.384;2022-12-18T04:45:02;100044.70;;;-6.39;88.89
76815;BME280;65768;49.906;19.384;2022-12-18T04:47:30;100048.48;;;-6.40;88.54
76815;BME280;65768;49.906;19.384;2022-12-18T04:49:58;100050.79;;;-6.40;88.77
76815;BME280;65768;49.906;19.384;2022-12-18T04:52:26;100051.29;;;-6.39;88.87
76815;BME280;65768;49.906;19.384;2022-12-18T04:54:54;100052.80;;;-6.39;88.67
76815;BME280;65768;49.906;19.384;2022-12-18T04:57:22;100056.00;;;-6.41;88.82
76815;BME280;65768;49.906;19.384;2022-12-18T04:59:50;100056.82;;;-6.41;88.94
76815;BME280;65768;49.906;19.384;2022-12-18T05:02:18;100066.16;;;-6.43;88.93
76815;BME280;65768;49.906;19.384;2022-12-18T05:04:46;100067.59;;;-6.44;88.98
76815;BME280;65768;49.906;19.384;2022-12-18T05:07:14;100070.74;;;-6.45;88.51
76815;BME280;65768;49.906;19.384;2022-12-18T05:09:42;100076.10;;;-6.45;88.55
76815;BME280;65768;49.906;19.384;2022-12-18T05:12:10;100082.86;;;-6.42;88.33
76815;BME280;65768;49.906;19.384;2022-12-18T05:14:38;100083.73;;;-6.42;88.57
76815;BME280;65768;49.906;19.384;2022-12-18T05:17:06;100080.92;;;-6.39;88.49
76815;BME280;65768;49.906;19.384;2022-12-18T05:19:34;100079.00;;;-6.38;88.52
76815;BME280;65768;49.906;19.384;2022-12-18T05:22:01;100087.29;;;-6.38;88.85
76815;BME280;65768;49.906;19.384;2022-12-18T05:24:29;100092.63;;;-6.39;88.56
76815;BME280;65768;49.906;19.384;2022-12-18T05:26:57;100090.81;;;-6.41;88.53
76815;BME280;65768;49.906;19.384;2022-12-18T05:29:25;100089.33;;;-6.42;88.79
76815;BME280;65768;49.906;19.384;2022-12-18T05:31:53;100085.02;;;-6.44;88.47
76815;BME280;65768;49.906;19.384;2022-12-18T05:34:21;100091.34;;;-6.46;88.52
76815;BME280;65768;49.906;19.384;2022-12-18T05:36:48;100086.70;;;-6.48;88.68
76815;BME280;65768;49.906;19.384;2022-12-18T05:39:16;100089.79;;;-6.49;88.83
76815;BME280;65768;49.906;19.384;2022-12-18T05:41:44;100089.52;;;-6.49;88.56
76815;BME280;65768;49.906;19.384;2022-12-18T05:44:12;100091.81;;;-6.47;88.46
76815;BME280;65768;49.906;19.384;2022-12-18T05:46:40;100093.83;;;-6.48;88.55
76815;BME280;65768;49.906;19.384;2022-12-18T05:49:08;100092.71;;;-6.51;88.26
76815;BME280;65768;49.906;19.384;2022-12-18T05:51:36;100093.06;;;-6.52;88.46
76815;BME280;65768;49.906;19.384;2022-12-18T05:54:06;100095.34;;;-6.53;88.43
76815;BME280;65768;49.906;19.384;2022-12-18T05:56:33;100101.58;;;-6.52;88.42
76815;BME280;65768;49.906;19.384;2022-12-18T05:59:01;100102.20;;;-6.53;88.23
76815;BME280;65768;49.906;19.384;2022-12-18T06:01:29;100105.88;;;-6.53;88.50
76815;BME280;65768;49.906;19.384;2022-12-18T06:03:57;100106.30;;;-6.54;88.58
76815;BME280;65768;49.906;19.384;2022-12-18T06:06:27;100109.84;;;-6.56;88.48
76815;BME280;65768;49.906;19.384;2022-12-18T06:08:55;100111.85;;;-6.55;88.34
76815;BME280;65768;49.906;19.384;2022-12-18T06:11:25;100120.42;;;-6.54;88.59
76815;BME280;65768;49.906;19.384;2022-12-18T06:13:54;100127.10;;;-6.53;88.43
76815;BME280;65768;49.906;19.384;2022-12-18T06:16:23;100124.67;;;-6.53;88.05
76815;BME280;65768;49.906;19.384;2022-12-18T06:18:51;100127.67;;;-6.54;88.05
76815;BME280;65768;49.906;19.384;2022-12-18T06:21:19;100125.91;;;-6.55;88.02
76815;BME280;65768;49.906;19.384;2022-12-18T06:23:47;100127.27;;;-6.55;88.03
76815;BME280;65768;49.906;19.384;2022-12-18T06:26:15;100132.55;;;-6.54;88.30
76815;BME280;65768;49.906;19.384;2022-12-18T06:28:43;100130.16;;;-6.57;87.90
76815;BME280;65768;49.906;19.384;2022-12-18T06:31:11;100130.16;;;-6.56;88.17
76815;BME280;65768;49.906;19.384;2022-12-18T06:33:39;100131.57;;;-6.56;87.78
76815;BME280;65768;49.906;19.384;2022-12-18T06:36:10;100132.73;;;-6.54;87.61
76815;BME280;65768;49.906;19.384;2022-12-18T06:38:43;100137.21;;;-6.54;87.76
76815;BME280;65768;49.906;19.384;2022-12-18T06:41:14;100142.10;;;-6.52;88.09
76815;BME280;65768;49.906;19.384;2022-12-18T06:43:43;100142.89;;;-6.53;87.77
76815;BME280;65768;49.906;19.384;2022-12-18T06:46:12;100151.13;;;-6.50;87.76
76815;BME280;65768;49.906;19.384;2022-12-18T06:48:41;100150.84;;;-6.49;87.43
76815;BME280;65768;49.906;19.384;2022-12-18T06:51:09;100152.83;;;-6.48;87.80
76815;BME280;65768;49.906;19.384;2022-12-18T06:53:38;100151.77;;;-6.47;87.33
76815;BME280;65768;49.906;19.384;2022-12-18T06:56:10;100158.54;;;-6.45;87.70
76815;BME280;65768;49.906;19.384;2022-12-18T06:58:41;100161.92;;;-6.44;87.60
76815;BME280;65768;49.906;19.384;2022-12-18T07:01:11;100164.89;;;-6.41;87.21
76815;BME280;65768;49.906;19.384;2022-12-18T07:03:42;100168.69;;;-6.39;87.23
76815;BME280;65768;49.906;19.384;2022-12-18T07:06:28;100176.77;;;-6.38;87.08
76815;BME280;65768;49.906;19.384;2022-12-18T07:08:56;100182.25;;;-6.34;87.07
76815;BME280;65768;49.906;19.384;2022-12-18T07:11:24;100185.81;;;-6.28;86.83
76815;BME280;65768;49.906;19.384;2022-12-18T07:13:52;100192.63;;;-6.22;86.56
76815;BME280;65768;49.906;19.384;2022-12-18T07:16:20;100198.45;;;-6.17;86.03
76815;BME280;65768;49.906;19.384;2022-12-18T07:18:48;100200.39;;;-6.13;86.75
76815;BME280;65768;49.906;19.384;2022-12-18T07:21:18;100198.15;;;-6.10;86.44
76815;BME280;65768;49.906;19.384;2022-12-18T07:23:46;100202.34;;;-6.07;86.05
76815;BME280;65768;49.906;19.384;2022-12-18T07:26:17;100204.81;;;-6.06;85.80
76815;BME280;65768;49.906;19.384;2022-12-18T07:28:46;100203.21;;;-6.01;86.35
76815;BME280;65768;49.906;19.384;2022-12-18T07:31:19;100207.45;;;-6.01;86.50
76815;BME280;65768;49.906;19.384;2022-12-18T07:33:48;100211.23;;;-5.97;86.01
76815;BME280;65768;49.906;19.384;2022-12-18T07:36:17;100217.12;;;-5.94;85.87
76815;BME280;65768;49.906;19.384;2022-12-18T07:38:47;100217.40;;;-5.91;86.05
76815;BME280;65768;49.906;19.384;2022-12-18T07:41:16;100223.31;;;-5.85;85.43
76815;BME280;65768;49.906;19.384;2022-12-18T07:43:44;100220.88;;;-5.78;85.74
76815;BME280;65768;49.906;19.384;2022-12-18T07:46:13;100219.53;;;-5.74;85.06
76815;BME280;65768;49.906;19.384;2022-12-18T07:48:42;100214.85;;;-5.65;84.37
76815;BME280;65768;49.906;19.384;2022-12-18T07:51:10;100220.34;;;-5.59;84.42
76815;BME280;65768;49.906;19.384;2022-12-18T07:53:39;100222.55;;;-5.57;84.62
76815;BME280;65768;49.906;19.384;2022-12-18T07:56:09;100222.45;;;-5.62;84.91
76815;BME280;65768;49.906;19.384;2022-12-18T07:58:38;100218.80;;;-5.68;84.70
76815;BME280;65768;49.906;19.384;2022-12-18T08:01:10;100223.06;;;-5.63;83.14
76815;BME280;65768;49.906;19.384;2022-12-18T08:03:39;100221.88;;;-5.62;82.79
76815;BME280;65768;49.906;19.384;2022-12-18T08:06:09;100223.93;;;-5.61;82.50
76815;BME280;65768;49.906;19.384;2022-12-18T08:08:37;100224.82;;;-5.64;81.72
76815;BME280;65768;49.906;19.384;2022-12-18T08:11:05;100227.96;;;-5.61;82.34
76815;BME280;65768;49.906;19.384;2022-12-18T08:13:33;100221.23;;;-5.61;82.35
76815;BME280;65768;49.906;19.384;2022-12-18T08:16:03;100220.17;;;-5.69;81.59
76815;BME280;65768;49.906;19.384;2022-12-18T08:18:33;100224.31;;;-5.81;82.22
76815;BME280;65768;49.906;19.384;2022-12-18T08:23:39;100228.70;;;-5.88;81.52
76815;BME280;65768;49.906;19.384;2022-12-18T08:26:07;100232.21;;;-5.86;81.58
76815;BME280;65768;49.906;19.384;2022-12-18T08:28:35;100232.52;;;-5.86;82.27
76815;BME280;65768;49.906;19.384;2022-12-18T08:31:04;100235.35;;;-5.92;82.88
76815;BME280;65768;49.906;19.384;2022-12-18T08:33:32;100236.60;;;-5.95;82.80
76815;BME280;65768;49.906;19.384;2022-12-18T08:36:01;100241.40;;;-6.01;83.49
76815;BME280;65768;49.906;19.384;2022-12-18T08:38:29;100243.52;;;-6.00;82.69
76815;BME280;65768;49.906;19.384;2022-12-18T08:41:09;100253.65;;;-6.03;83.33
76815;BME280;65768;49.906;19.384;2022-12-18T08:43:44;100250.74;;;-6.07;82.29
76815;BME280;65768;49.906;19.384;2022-12-18T08:46:34;100252.48;;;-5.99;83.59
76815;BME280;65768;49.906;19.384;2022-12-18T08:49:03;100256.20;;;-5.89;84.18
76815;BME280;65768;49.906;19.384;2022-12-18T08:51:32;100259.09;;;-5.81;83.33
76815;BME280;65768;49.906;19.384;2022-12-18T08:54:06;100258.20;;;-5.82;82.84
76815;BME280;65768;49.906;19.384;2022-12-18T08:56:34;100263.14;;;-5.78;82.80
76815;BME280;65768;49.906;19.384;2022-12-18T08:59:02;100266.91;;;-5.74;83.03
76815;BME280;65768;49.906;19.384;2022-12-18T09:01:32;100268.69;;;-5.75;84.09
76815;BME280;65768;49.906;19.384;2022-12-18T09:04:00;100265.92;;;-5.77;83.40
76815;BME280;65768;49.906;19.384;2022-12-18T09:06:28;100269.79;;;-5.74;82.98
76815;BME280;65768;49.906;19.384;2022-12-18T09:08:57;100269.77;;;-5.68;82.61
76815;BME280;65768;49.906;19.384;2022-12-18T09:11:27;100270.85;;;-5.58;82.63
76815;BME280;65768;49.906;19.384;2022-12-18T09:13:56;100264.66;;;-5.61;82.59
76815;BME280;65768;49.906;19.384;2022-12-18T09:16:25;100269.35;;;-5.53;82.71
76815;BME280;65768;49.906;19.384;2022-12-18T09:18:56;100268.08;;;-5.45;82.22
76815;BME280;65768;49.906;19.384;2022-12-18T09:21:30;100269.81;;;-5.43;82.05
76815;BME280;65768;49.906;19.384;2022-12-18T09:23:58;100279.04;;;-5.42;82.23
76815;BME280;65768;49.906;19.384;2022-12-18T09:26:27;100283.77;;;-5.32;81.08
76815;BME280;65768;49.906;19.384;2022-12-18T09:28:55;100289.67;;;-5.27;79.78
76815;BME280;65768;49.906;19.384;2022-12-18T09:31:24;100289.56;;;-5.23;79.27
76815;BME280;65768;49.906;19.384;2022-12-18T09:33:55;100288.92;;;-5.17;79.41
76815;BME280;65768;49.906;19.384;2022-12-18T09:36:25;100288.91;;;-5.03;79.48
76815;BME280;65768;49.906;19.384;2022-12-18T09:38:54;100286.20;;;-4.90;79.62
76815;BME280;65768;49.906;19.384;2022-12-18T09:44:13;100287.98;;;-4.80;79.70
76815;BME280;65768;49.906;19.384;2022-12-18T09:46:47;100290.52;;;-4.77;79.87
76815;BME280;65768;49.906;19.384;2022-12-18T09:49:20;100294.92;;;-4.68;78.25
76815;BME280;65768;49.906;19.384;2022-12-18T09:54:41;100294.94;;;-4.09;77.52
76815;BME280;65768;49.906;19.384;2022-12-18T09:57:22;100304.08;;;-3.79;75.88
76815;BME280;65768;49.906;19.384;2022-12-18T10:00:02;100307.31;;;-3.66;73.78
76815;BME280;65768;49.906;19.384;2022-12-18T10:02:34;100304.17;;;-3.72;73.83
76815;BME280;65768;49.906;19.384;2022-12-18T10:05:11;100307.05;;;-3.77;74.41
76815;BME280;65768;49.906;19.384;2022-12-18T10:07:43;100307.68;;;-3.67;73.90
76815;BME280;65768;49.906;19.384;2022-12-18T10:16:36;100296.55;;;-3.59;77.38
76815;BME280;65768;49.906;19.384;2022-12-18T10:19:16;100292.73;;;-3.50;77.32
76815;BME280;65768;49.906;19.384;2022-12-18T10:22:10;100285.42;;;-3.50;78.11
76815;BME280;65768;49.906;19.384;2022-12-18T10:24:52;100278.91;;;-3.58;77.99
76815;BME280;65768;49.906;19.384;2022-12-18T10:27:26;100276.31;;;-3.70;78.00
76815;BME280;65768;49.906;19.384;2022-12-18T10:29:55;100276.84;;;-3.75;78.36
76815;BME280;65768;49.906;19.384;2022-12-18T10:32:26;100272.14;;;-3.80;78.62
76815;BME280;65768;49.906;19.384;2022-12-18T10:34:57;100270.09;;;-3.82;77.41
76815;BME280;65768;49.906;19.384;2022-12-18T10:37:28;100270.04;;;-3.75;76.58
76815;BME280;65768;49.906;19.384;2022-12-18T10:42:38;100268.91;;;-3.66;76.47
76815;BME280;65768;49.906;19.384;2022-12-18T10:45:16;100271.08;;;-3.69;75.59
76815;BME280;65768;49.906;19.384;2022-12-18T10:47:49;100261.38;;;-3.71;76.48
76815;BME280;65768;49.906;19.384;2022-12-18T10:50:36;100255.55;;;-3.85;77.30
76815;BME280;65768;49.906;19.384;2022-12-18T10:53:19;100256.16;;;-4.01;76.84
76815;BME280;65768;49.906;19.384;2022-12-18T10:55:55;100254.30;;;-4.06;77.45
76815;BME280;65768;49.906;19.384;2022-12-18T10:58:33;100247.27;;;-4.01;76.33
76815;BME280;65768;49.906;19.384;2022-12-18T11:01:16;100246.61;;;-3.95;76.44
76815;BME280;65768;49.906;19.384;2022-12-18T11:06:18;100246.11;;;-4.08;77.17
76815;BME280;65768;49.906;19.384;2022-12-18T11:09:05;100247.98;;;-4.14;77.22
76815;BME280;65768;49.906;19.384;2022-12-18T11:11:37;100249.59;;;-4.15;77.04
76815;BME280;65768;49.906;19.384;2022-12-18T11:14:42;100255.02;;;-4.21;77.87
76815;BME280;65768;49.906;19.384;2022-12-18T11:17:02;100251.45;;;-4.24;77.83
76815;BME280;65768;49.906;19.384;2022-12-18T11:19:34;100242.23;;;-4.25;77.57
76815;BME280;65768;49.906;19.384;2022-12-18T11:22:19;100237.04;;;-4.24;77.61
76815;BME280;65768;49.906;19.384;2022-12-18T11:25:18;100232.56;;;-4.20;77.85
76815;BME280;65768;49.906;19.384;2022-12-18T11:28:04;100230.57;;;-4.14;77.31
76815;BME280;65768;49.906;19.384;2022-12-18T11:30:42;100231.80;;;-4.08;75.80
76815;BME280;65768;49.906;19.384;2022-12-18T11:33:22;100234.02;;;-4.14;76.06
76815;BME280;65768;49.906;19.384;2022-12-18T11:36:00;100238.00;;;-4.15;76.72
76815;BME280;65768;49.906;19.384;2022-12-18T11:50:48;100235.48;;;-4.43;77.14
76815;BME280;65768;49.906;19.384;2022-12-18T11:53:30;100233.52;;;-4.46;77.17
76815;BME280;65768;49.906;19.384;2022-12-18T11:56:32;100227.89;;;-4.48;77.19
76815;BME280;65768;49.906;19.384;2022-12-18T11:59:12;100231.61;;;-4.50;77.49
76815;BME280;65768;49.906;19.384;2022-12-18T12:01:50;100241.70;;;-4.53;76.76
76815;BME280;65768;49.906;19.384;2022-12-18T12:16:06;100251.95;;;-4.78;77.86
76815;BME280;65768;49.906;19.384;2022-12-18T12:21:43;100256.73;;;-4.91;78.78
76815;BME280;65768;49.906;19.384;2022-12-18T12:24:33;100257.25;;;-4.87;78.46
76815;BME280;65768;49.906;19.384;2022-12-18T12:27:20;100251.93;;;-4.87;78.51
76815;BME280;65768;49.906;19.384;2022-12-18T12:35:52;100256.83;;;-4.86;78.32
76815;BME280;65768;49.906;19.384;2022-12-18T12:38:46;100270.15;;;-4.85;77.75
76815;BME280;65768;49.906;19.384;2022-12-18T12:41:23;100273.30;;;-4.84;77.76
76815;BME280;65768;49.906;19.384;2022-12-18T12:44:19;100274.77;;;-4.90;77.57
76815;BME280;65768;49.906;19.384;2022-12-18T12:46:49;100279.51;;;-4.91;78.29
76815;BME280;65768;49.906;19.384;2022-12-18T12:49:21;100283.21;;;-4.87;78.08
76815;BME280;65768;49.906;19.384;2022-12-18T12:52:00;100284.73;;;-4.93;78.06
76815;BME280;65768;49.906;19.384;2022-12-18T12:54:32;100286.60;;;-4.97;78.49
76815;BME280;65768;49.906;19.384;2022-12-18T12:57:21;100288.33;;;-5.02;78.61
76815;BME280;65768;49.906;19.384;2022-12-18T13:00:13;100292.34;;;-5.08;78.25
76815;BME280;65768;49.906;19.384;2022-12-18T13:02:50;100285.58;;;-5.18;78.49
76815;BME280;65768;49.906;19.384;2022-12-18T13:08:04;100290.89;;;-5.25;79.13
76815;BME280;65768;49.906;19.384;2022-12-18T13:10:39;100292.55;;;-5.34;78.81
76815;BME280;65768;49.906;19.384;2022-12-18T13:13:08;100291.91;;;-5.43;79.18
76815;BME280;65768;49.906;19.384;2022-12-18T13:25:59;100301.29;;;-5.81;79.93
76815;BME280;65768;49.906;19.384;2022-12-18T13:34:24;100308.78;;;-6.15;80.32
76815;BME280;65768;49.906;19.384;2022-12-18T13:36:54;100314.05;;;-6.29;80.65
76815;BME280;65768;49.906;19.384;2022-12-18T13:39:30;100314.82;;;-6.31;81.83
76815;BME280;65768;49.906;19.384;2022-12-18T13:44:39;100322.68;;;-6.44;81.31
76815;BME280;65768;49.906;19.384;2022-12-18T13:47:43;100324.80;;;-6.48;82.02
76815;BME280;65768;49.906;19.384;2022-12-18T13:50:24;100323.30;;;-6.60;81.33
76815;BME280;65768;49.906;19.384;2022-12-18T13:52:53;100327.58;;;-6.68;82.11
76815;BME280;65768;49.906;19.384;2022-12-18T13:55:22;100332.71;;;-6.77;82.23
76815;BME280;65768;49.906;19.384;2022-12-18T13:58:03;100330.02;;;-6.81;82.73
76815;BME280;65768;49.906;19.384;2022-12-18T14:00:31;100325.77;;;-6.72;81.73
76815;BME280;65768;49.906;19.384;2022-12-18T14:03:00;100324.15;;;-6.71;81.85
76815;BME280;65768;49.906;19.384;2022-12-18T14:05:34;100320.85;;;-6.85;82.25
76815;BME280;65768;49.906;19.384;2022-12-18T14:08:14;100324.40;;;-6.97;82.04
76815;BME280;65768;49.906;19.384;2022-12-18T14:10:45;100322.92;;;-7.15;82.81
76815;BME280;65768;49.906;19.384;2022-12-18T14:13:28;100328.88;;;-7.38;83.06
76815;BME280;65768;49.906;19.384;2022-12-18T14:16:03;100335.89;;;-7.63;83.82
76815;BME280;65768;49.906;19.384;2022-12-18T14:18:42;100331.40;;;-7.78;84.84
76815;BME280;65768;49.906;19.384;2022-12-18T14:21:21;100329.98;;;-7.93;84.42
76815;BME280;65768;49.906;19.384;2022-12-18T14:24:06;100330.91;;;-8.03;84.77
76815;BME280;65768;49.906;19.384;2022-12-18T14:26:34;100340.14;;;-8.17;85.21
76815;BME280;65768;49.906;19.384;2022-12-18T14:29:26;100341.59;;;-8.31;85.37
76815;BME280;65768;49.906;19.384;2022-12-18T14:34:51;100340.45;;;-8.63;86.22
76815;BME280;65768;49.906;19.384;2022-12-18T14:37:23;100341.89;;;-8.71;86.59
76815;BME280;65768;49.906;19.384;2022-12-18T14:39:58;100343.59;;;-8.79;86.42
76815;BME280;65768;49.906;19.384;2022-12-18T14:42:29;100338.56;;;-8.86;87.30
76815;BME280;65768;49.906;19.384;2022-12-18T14:45:33;100341.20;;;-8.93;87.06
76815;BME280;65768;49.906;19.384;2022-12-18T14:48:06;100341.98;;;-9.05;87.21
76815;BME280;65768;49.906;19.384;2022-12-18T14:50:35;100340.21;;;-9.17;87.84
76815;BME280;65768;49.906;19.384;2022-12-18T14:53:03;100333.33;;;-9.26;88.31
76815;BME280;65768;49.906;19.384;2022-12-18T14:55:31;100334.59;;;-9.35;87.79
76815;BME280;65768;49.906;19.384;2022-12-18T14:58:00;100339.98;;;-9.44;88.26
76815;BME280;65768;49.906;19.384;2022-12-18T15:00:28;100340.35;;;-9.56;88.78
76815;BME280;65768;49.906;19.384;2022-12-18T15:02:57;100340.80;;;-9.66;89.06